Time;durP1;ratioP1;P1;durP2;ratioP2;P2;SDS_P1;SDS_P2;PMS_P1;PMS_P2;Temp;Humidity;BMP_temperature;BMP_pressure;BME280_temperature;BME280_humidity;BME280_pressure;Samples;Min_cycle;Max_cycle;Signal;HPM_P1;HPM_P2
2022/01/27 00:01:07;;;;;;;;;;;;;;;12.71;49.58;101626.38;4979942;27;99185;-56
2022/01/27 00:03:43;;;;;;;;;;;;;;;12.70;49.77;101612.03;4978080;28;98254;-56
2022/01/27 00:06:10;;;;;;;;;;;;;;;12.71;49.73;101610.13;4980423;28;97942;-64
2022/01/27 00:08:45;;;;;;;;;;;;;;;12.71;49.83;101589.31;4981293;27;97849;-64
2022/01/27 00:11:14;;;;;;;;;;;;;;;12.71;49.80;101594.72;4979760;27;98513;-63
2022/01/27 00:13:45;;;;;;;;;;;;;;;12.70;49.92;101600.41;4982007;27;98250;-56
2022/01/27 00:16:16;;;;;;;;;;;;;;;12.72;49.73;101598.25;4982902;27;98233;-56
2022/01/27 00:18:47;;;;;;;;;;;;;;;12.70;49.77;101593.09;4983276;28;97939;-64
2022/01/27 00:21:14;;;;;;;;;;;;;;;12.70;49.86;101587.69;4983501;28;98279;-64
2022/01/27 00:23:41;;;;;;;;;;;;;;;12.71;49.75;101585.78;4983500;27;99189;-63
2022/01/27 00:26:07;;;;;;;;;;;;;;;12.70;49.73;101574.16;4982402;27;98233;-56
2022/01/27 00:28:33;;;;;;;;;;;;;;;12.70;49.90;101581.47;4982815;27;98468;-57
2022/01/27 00:30:59;;;;;;;;;;;;;;;12.70;49.71;101587.69;4982956;28;104401;-56
2022/01/27 00:33:25;;;;;;;;;;;;;;;12.70;49.92;101568.75;4981725;27;128919;-57
2022/01/27 00:35:51;;;;;;;;;;;;;;;12.70;49.86;101562.53;4980001;28;98696;-57
2022/01/27 00:38:17;;;;;;;;;;;;;;;12.68;49.97;101557.34;4983216;28;97923;-56
2022/01/27 00:40:43;;;;;;;;;;;;;;;12.70;49.89;101549.81;4982362;27;98727;-64
2022/01/27 00:43:09;;;;;;;;;;;;;;;12.70;49.82;101554.41;4983567;27;98285;-56
2022/01/27 00:45:36;;;;;;;;;;;;;;;12.71;49.75;101553.31;4982425;27;98174;-63
2022/01/27 00:48:04;;;;;;;;;;;;;;;12.69;49.82;101537.38;4983072;27;97908;-57
2022/01/27 00:50:32;;;;;;;;;;;;;;;12.69;49.88;101540.06;4982820;27;98300;-56
2022/01/27 00:53:00;;;;;;;;;;;;;;;12.70;49.82;101541.69;4982458;27;98507;-63
2022/01/27 00:55:28;;;;;;;;;;;;;;;12.70;49.77;101539.00;4982361;27;98025;-64
2022/01/27 00:58:11;;;;;;;;;;;;;;;12.69;50.07;101540.06;4983052;27;97760;-63
2022/01/27 01:00:43;;;;;;;;;;;;;;;12.69;50.01;101544.63;4982647;27;99826;-56
2022/01/27 01:03:15;;;;;;;;;;;;;;;12.69;49.98;101544.63;4983718;28;98883;-64
2022/01/27 01:11:47;;;;;;;;;;;;;;;12.69;49.92;101542.78;4981081;27;98242;-56
2022/01/27 01:17:26;;;;;;;;;;;;;;;12.69;49.79;101526.53;4981642;27;97897;-56
2022/01/27 01:33:04;;;;;;;;;;;;;;;12.67;49.99;101517.84;4979754;28;98370;-56
2022/01/27 01:35:09;;;;;;;;;;;;;;;12.67;50.05;101512.44;4975162;27;98218;-63
2022/01/27 01:37:41;;;;;;;;;;;;;;;12.68;49.92;101510.56;4981746;28;98098;-64
2022/01/27 01:40:08;;;;;;;;;;;;;;;12.69;50.02;101501.34;4965240;28;98333;-56
2022/01/27 01:42:34;;;;;;;;;;;;;;;12.68;50.02;101503.25;4983443;27;98771;-56
2022/01/27 01:45:11;;;;;;;;;;;;;;;12.65;49.87;101479.41;4982752;28;100630;-64
2022/01/27 01:47:37;;;;;;;;;;;;;;;12.67;49.84;101473.75;4980804;28;97933;-63
2022/01/27 01:50:05;;;;;;;;;;;;;;;12.67;50.06;101473.75;4981561;27;105185;-64
2022/01/27 01:52:31;;;;;;;;;;;;;;;12.66;50.16;101464.84;4980598;27;122950;-56
2022/01/27 01:54:57;;;;;;;;;;;;;;;12.66;50.16;101472.13;4979148;28;127629;-56
2022/01/27 01:57:22;;;;;;;;;;;;;;;12.67;50.18;101466.47;4980321;28;120631;-63
2022/01/27 01:59:48;;;;;;;;;;;;;;;12.65;49.98;101454.25;4981471;28;117605;-64
2022/01/27 02:02:14;;;;;;;;;;;;;;;12.66;50.03;101451.31;4981101;28;128925;-64
2022/01/27 02:04:41;;;;;;;;;;;;;;;12.65;49.99;101444.25;4981002;28;122512;-56
2022/01/27 02:07:16;;;;;;;;;;;;;;;12.65;49.99;101452.34;4981689;27;111754;-59
2022/01/27 02:20:37;;;;;;;;;;;;;;;12.64;50.09;101444.50;4966323;28;97957;-56
2022/01/27 02:23:04;;;;;;;;;;;;;;;12.63;50.19;101451.81;4982144;27;98576;-57
2022/01/27 02:25:30;;;;;;;;;;;;;;;12.62;50.01;101450.19;4980631;27;98418;-56
2022/01/27 02:27:56;;;;;;;;;;;;;;;12.63;50.10;101449.13;4979777;28;127604;-56
2022/01/27 02:30:23;;;;;;;;;;;;;;;12.62;50.03;101444.78;4978568;27;113655;-56
2022/01/27 02:32:52;;;;;;;;;;;;;;;12.61;50.02;101440.44;4981494;28;98691;-63
2022/01/27 02:35:29;;;;;;;;;;;;;;;12.61;50.13;101436.91;4980985;27;98532;-56
2022/01/27 02:37:56;;;;;;;;;;;;;;;12.61;50.08;101432.31;4979771;27;98515;-56
2022/01/27 02:40:34;;;;;;;;;;;;;;;12.60;49.93;101422.56;4981281;27;97803;-56
2022/01/27 02:43:00;;;;;;;;;;;;;;;12.60;49.99;101424.47;4980535;28;98551;-56
2022/01/27 02:45:44;;;;;;;;;;;;;;;12.59;49.84;101420.13;4979997;27;116053;-64
2022/01/27 02:48:12;;;;;;;;;;;;;;;12.58;49.98;101411.22;4980904;27;118933;-55
2022/01/27 02:50:38;;;;;;;;;;;;;;;12.59;50.02;101412.03;4980319;27;97918;-56
2022/01/27 02:53:06;;;;;;;;;;;;;;;12.58;49.98;101399.59;4980012;28;128088;-64
2022/01/27 02:55:31;;;;;;;;;;;;;;;12.56;50.07;101397.13;4978366;27;104609;-63
2022/01/27 02:57:58;;;;;;;;;;;;;;;12.56;50.07;101401.72;4978971;28;128917;-56
2022/01/27 03:00:24;;;;;;;;;;;;;;;12.55;50.14;101400.91;4981359;27;97843;-56
2022/01/27 03:02:50;;;;;;;;;;;;;;;12.56;50.12;101396.31;4981029;28;99188;-63
2022/01/27 03:05:16;;;;;;;;;;;;;;;12.55;50.04;101403.59;4980170;28;116897;-63
2022/01/27 03:07:47;;;;;;;;;;;;;;;12.53;50.01;101387.63;4981216;28;98873;-63
2022/01/27 03:10:16;;;;;;;;;;;;;;;12.55;50.03;101386.56;4979250;27;98297;-63
2022/01/27 03:12:42;;;;;;;;;;;;;;;12.56;49.99;101385.50;4977475;27;119250;-55
2022/01/27 03:15:10;;;;;;;;;;;;;;;12.54;50.11;101369.53;4978636;28;112039;-56
2022/01/27 03:17:37;;;;;;;;;;;;;;;12.55;49.99;101378.47;4980401;27;98090;-63
2022/01/27 03:20:03;;;;;;;;;;;;;;;12.55;50.18;101384.69;5012302;27;97787;-56
2022/01/27 03:22:29;;;;;;;;;;;;;;;12.55;50.00;101370.34;4979743;28;114994;-56
2022/01/27 03:24:55;;;;;;;;;;;;;;;12.54;50.10;101380.34;4979941;27;112780;-57
2022/01/27 03:27:24;;;;;;;;;;;;;;;12.52;50.01;101375.19;4979236;28;126116;-56
2022/01/27 03:29:51;;;;;;;;;;;;;;;12.52;49.79;101366.25;4980440;27;98036;-57
2022/01/27 03:32:17;;;;;;;;;;;;;;;12.52;49.94;101355.44;4979867;27;98361;-63
2022/01/27 03:34:42;;;;;;;;;;;;;;;12.52;50.00;101350.84;4980641;28;98962;-56
2022/01/27 03:37:08;;;;;;;;;;;;;;;12.51;50.10;101340.28;4979634;28;120030;-64
2022/01/27 03:39:39;;;;;;;;;;;;;;;12.51;50.16;101322.19;4980250;28;117655;-63
2022/01/27 03:42:05;;;;;;;;;;;;;;;12.49;50.02;101310.78;4980474;28;98695;-56
2022/01/27 03:44:31;;;;;;;;;;;;;;;12.50;50.10;101295.41;4980633;27;98913;-63
2022/01/27 03:46:57;;;;;;;;;;;;;;;12.49;49.84;101301.88;4979244;28;126944;-64
2022/01/27 03:49:23;;;;;;;;;;;;;;;12.48;49.92;101313.75;4984681;27;97752;-56
2022/01/27 03:51:49;;;;;;;;;;;;;;;12.48;49.98;101311.06;4985720;27;114873;-56
2022/01/27 03:54:15;;;;;;;;;;;;;;;12.48;49.89;101308.34;4986900;28;99049;-56
2022/01/27 03:56:41;;;;;;;;;;;;;;;12.47;49.97;101296.72;4986050;27;99364;-64
2022/01/27 03:59:07;;;;;;;;;;;;;;;12.47;49.98;101288.63;4987848;28;102098;-55
2022/01/27 04:01:34;;;;;;;;;;;;;;;12.46;50.13;101276.19;4987380;27;106488;-56
2022/01/27 04:04:01;;;;;;;;;;;;;;;12.45;50.00;101266.41;4987643;27;98014;-56
2022/01/27 04:06:35;;;;;;;;;;;;;;;12.43;49.94;101257.75;4985897;27;97937;-63
2022/01/27 04:09:02;;;;;;;;;;;;;;;12.44;49.99;101247.75;4987522;28;97961;-64
2022/01/27 04:11:28;;;;;;;;;;;;;;;12.44;50.13;101247.75;4985958;27;99153;-63
2022/01/27 04:13:54;;;;;;;;;;;;;;;12.43;50.09;101225.31;4986522;27;98766;-57
2022/01/27 04:16:20;;;;;;;;;;;;;;;12.43;49.94;101238.03;4985652;28;122376;-57
2022/01/27 04:18:46;;;;;;;;;;;;;;;12.43;50.03;101235.31;4986290;28;110544;-57
2022/01/27 04:21:13;;;;;;;;;;;;;;;12.42;50.08;101248.03;4985502;28;121372;-56
2022/01/27 04:23:39;;;;;;;;;;;;;;;12.43;50.11;101248.84;4986781;27;98834;-56
2022/01/27 04:26:06;;;;;;;;;;;;;;;12.42;50.10;101255.34;4985058;28;128474;-63
2022/01/27 04:28:35;;;;;;;;;;;;;;;12.42;50.00;101256.16;4987058;28;97732;-56
2022/01/27 04:31:04;;;;;;;;;;;;;;;12.41;49.98;101249.09;4985701;27;98733;-63
2022/01/27 04:33:32;;;;;;;;;;;;;;;12.42;49.94;101244.53;4986112;28;98601;-56
2022/01/27 04:36:01;;;;;;;;;;;;;;;12.40;49.95;101233.94;4986750;27;97874;-63
2022/01/27 04:38:51;;;;;;;;;;;;;;;12.41;50.09;101234.75;4986869;27;97962;-56
2022/01/27 04:41:36;;;;;;;;;;;;;;;12.41;49.85;101238.28;4984365;27;98423;-64
2022/01/27 04:44:14;;;;;;;;;;;;;;;12.41;49.93;101238.28;4985399;28;98431;-56
2022/01/27 04:46:48;;;;;;;;;;;;;;;12.41;50.13;101216.63;4985195;27;97814;-63
2022/01/27 04:49:14;;;;;;;;;;;;;;;12.41;50.02;101210.41;4986624;28;97802;-56
2022/01/27 04:51:40;;;;;;;;;;;;;;;12.40;49.81;101206.91;4985801;28;99158;-63
2022/01/27 04:54:14;;;;;;;;;;;;;;;12.40;49.96;101209.63;4986067;27;98706;-63
2022/01/27 04:56:41;;;;;;;;;;;;;;;12.41;49.94;101200.41;4985854;27;97977;-63
2022/01/27 04:59:29;;;;;;;;;;;;;;;12.42;50.11;101218.28;4985558;27;97833;-56
2022/01/27 05:02:02;;;;;;;;;;;;;;;12.42;49.83;101228.28;4983019;27;98114;-63
2022/01/27 05:04:40;;;;;;;;;;;;;;;12.42;49.77;101222.88;4983137;27;98706;-63
2022/01/27 05:07:06;;;;;;;;;;;;;;;12.42;49.79;101220.19;4982900;28;98074;-63
2022/01/27 05:09:32;;;;;;;;;;;;;;;12.42;49.91;101218.28;4983095;28;98062;-63
2022/01/27 05:12:10;;;;;;;;;;;;;;;12.42;49.71;101215.59;4982465;27;98162;-63
2022/01/27 05:14:36;;;;;;;;;;;;;;;12.42;49.88;101215.59;4982501;28;98402;-56
2022/01/27 05:17:02;;;;;;;;;;;;;;;12.42;49.79;101215.59;4982574;28;103214;-56
2022/01/27 05:19:28;;;;;;;;;;;;;;;12.43;49.69;101216.41;4982520;27;97895;-63
2022/01/27 05:21:54;;;;;;;;;;;;;;;12.43;49.69;101211.78;4981390;27;129482;-63
2022/01/27 05:24:20;;;;;;;;;;;;;;;12.42;49.71;101207.47;4982206;28;127855;-56
2022/01/27 05:26:46;;;;;;;;;;;;;;;12.42;49.54;101183.13;4981542;27;121641;-63
2022/01/27 05:29:12;;;;;;;;;;;;;;;12.42;49.61;101175.03;4983136;28;100507;-56
2022/01/27 05:31:38;;;;;;;;;;;;;;;12.42;49.72;101172.31;4982117;28;104711;-56
2022/01/27 05:34:05;;;;;;;;;;;;;;;12.42;49.72;101176.94;4982419;27;98576;-56
2022/01/27 05:36:31;;;;;;;;;;;;;;;12.42;49.54;101185.84;4981780;27;106225;-56
2022/01/27 05:38:57;;;;;;;;;;;;;;;12.43;49.59;101170.44;4981286;28;97902;-63
2022/01/27 05:41:23;;;;;;;;;;;;;;;12.44;49.79;101172.06;4983111;27;98239;-56
2022/01/27 05:43:49;;;;;;;;;;;;;;;12.43;49.67;101178.53;4978072;28;128415;-63
2022/01/27 05:46:15;;;;;;;;;;;;;;;12.43;49.50;101170.44;4978404;27;127381;-63
2022/01/27 05:48:41;;;;;;;;;;;;;;;12.44;49.67;101162.03;4979001;28;97961;-63
2022/01/27 05:51:07;;;;;;;;;;;;;;;12.45;49.52;101162.84;4977991;28;99175;-63
2022/01/27 05:53:35;;;;;;;;;;;;;;;12.46;49.65;101159.09;4978118;28;120777;-63
2022/01/27 05:56:01;;;;;;;;;;;;;;;12.47;49.53;101158.00;4979239;27;98703;-63
2022/01/27 05:58:27;;;;;;;;;;;;;;;12.48;49.51;101154.22;4960389;28;111269;-63
2022/01/27 06:00:53;;;;;;;;;;;;;;;12.47;49.34;101156.13;4978037;27;99066;-63
2022/01/27 06:03:19;;;;;;;;;;;;;;;12.47;49.66;101164.22;4979624;28;99216;-63
2022/01/27 06:05:45;;;;;;;;;;;;;;;12.48;49.59;101170.44;4980113;27;128492;-63
2022/01/27 06:08:11;;;;;;;;;;;;;;;12.48;49.49;101168.56;4982163;28;97759;-63
2022/01/27 06:10:37;;;;;;;;;;;;;;;12.48;49.60;101168.56;4979377;27;127866;-63
2022/01/27 06:13:03;;;;;;;;;;;;;;;12.49;49.66;101164.75;4981666;28;127560;-63
2022/01/27 06:15:29;;;;;;;;;;;;;;;12.50;49.49;101169.13;4981784;28;97842;-63
2022/01/27 06:17:55;;;;;;;;;;;;;;;12.50;49.54;101163.72;4981137;27;102439;-63
2022/01/27 06:20:21;;;;;;;;;;;;;;;12.50;49.61;101161.00;4978870;28;106937;-63
2022/01/27 06:22:47;;;;;;;;;;;;;;;12.51;49.79;101146.41;4982260;28;97981;-63
2022/01/27 06:25:14;;;;;;;;;;;;;;;12.51;49.54;101157.22;4981178;28;97930;-63
2022/01/27 06:27:40;;;;;;;;;;;;;;;12.53;49.50;101154.25;4981731;27;98273;-64
2022/01/27 06:30:07;;;;;;;;;;;;;;;12.53;49.55;101149.63;4980589;27;107728;-64
2022/01/27 06:32:33;;;;;;;;;;;;;;;12.52;49.52;101145.31;4980308;28;98844;-63
2022/01/27 06:34:59;;;;;;;;;;;;;;;12.54;49.56;101128.84;4980680;27;108081;-64
2022/01/27 06:37:25;;;;;;;;;;;;;;;12.55;49.58;101129.66;4981070;28;97841;-63
2022/01/27 06:39:52;;;;;;;;;;;;;;;12.55;49.46;101124.25;4979495;28;128468;-63
2022/01/27 06:42:19;;;;;;;;;;;;;;;12.55;49.25;101105.31;4981755;27;98577;-62
2022/01/27 06:44:44;;;;;;;;;;;;;;;12.55;49.53;101111.53;4980286;27;119332;-63
2022/01/27 06:47:10;;;;;;;;;;;;;;;12.57;49.34;101105.84;4980854;27;116596;-63
2022/01/27 06:49:36;;;;;;;;;;;;;;;12.56;49.31;101105.03;4979421;28;126861;-63
2022/01/27 06:52:03;;;;;;;;;;;;;;;12.56;49.32;101090.72;4980823;28;100199;-64
2022/01/27 06:54:29;;;;;;;;;;;;;;;12.56;49.36;101098.81;4981505;28;98406;-63
2022/01/27 06:56:55;;;;;;;;;;;;;;;12.56;49.29;101085.31;4980764;27;109650;-63
2022/01/27 06:59:21;;;;;;;;;;;;;;;12.57;49.23;101103.16;4980890;28;98713;-63
2022/01/27 07:01:47;;;;;;;;;;;;;;;12.56;49.36;101085.31;4979015;27;129161;-63
2022/01/27 07:04:13;;;;;;;;;;;;;;;12.56;49.19;101072.59;4980848;27;98194;-63
2022/01/27 07:06:39;;;;;;;;;;;;;;;12.57;49.27;101079.63;4980084;27;116440;-63
2022/01/27 07:09:05;;;;;;;;;;;;;;;12.57;49.20;101068.00;4979981;27;98248;-63
2022/01/27 07:11:31;;;;;;;;;;;;;;;12.58;49.20;101069.63;4980327;27;100049;-63
2022/01/27 07:13:57;;;;;;;;;;;;;;;12.59;49.19;101066.66;4977986;28;126063;-63
2022/01/27 07:16:23;;;;;;;;;;;;;;;12.58;49.35;101059.63;4981234;27;97881;-63
2022/01/27 07:18:51;;;;;;;;;;;;;;;12.59;49.18;101080.19;4980811;28;129330;-63
2022/01/27 07:21:17;;;;;;;;;;;;;;;12.61;49.28;101071.78;4980470;27;99096;-62
2022/01/27 07:23:43;;;;;;;;;;;;;;;12.61;49.08;101060.97;4979012;27;126726;-63
2022/01/27 07:26:09;;;;;;;;;;;;;;;12.62;49.16;101030.16;4979895;27;118874;-56
2022/01/27 07:28:35;;;;;;;;;;;;;;;12.65;49.07;101059.34;4980747;27;98225;-63
2022/01/27 07:31:02;;;;;;;;;;;;;;;12.68;49.03;101045.31;4980912;27;98718;-56
2022/01/27 07:33:28;;;;;;;;;;;;;;;12.69;48.97;101039.66;4980336;27;98633;-63
2022/01/27 07:35:54;;;;;;;;;;;;;;;12.70;48.78;101054.78;4980346;27;117329;-63
2022/01/27 07:38:22;;;;;;;;;;;;;;;12.72;48.83;101054.50;4980215;28;127846;-63
2022/01/27 07:40:48;;;;;;;;;;;;;;;12.73;48.90;101075.91;4980538;27;99175;-64
2022/01/27 07:43:14;;;;;;;;;;;;;;;12.73;48.86;101080.47;4980016;28;126261;-56
2022/01/27 07:45:40;;;;;;;;;;;;;;;12.73;48.86;101056.97;4979739;27;104383;-63
2022/01/27 07:48:06;;;;;;;;;;;;;;;12.76;49.02;101066.41;4979696;28;98903;-63
2022/01/27 07:50:32;;;;;;;;;;;;;;;12.77;48.98;101089.69;4979361;27;126883;-63
2022/01/27 07:52:58;;;;;;;;;;;;;;;12.77;48.68;101073.44;4980773;28;98512;-56
2022/01/27 07:55:24;;;;;;;;;;;;;;;12.81;48.78;101073.72;4980436;28;98300;-56
2022/01/27 07:57:51;;;;;;;;;;;;;;;12.81;48.90;101073.72;4980119;28;103726;-63
2022/01/27 08:00:17;;;;;;;;;;;;;;;12.82;48.84;101068.06;4979311;27;98722;-56
2022/01/27 08:02:45;;;;;;;;;;;;;;;12.86;48.90;101054.81;4980885;28;97887;-63
2022/01/27 08:05:11;;;;;;;;;;;;;;;12.90;48.73;101050.50;4980534;27;97741;-63
2022/01/27 08:07:37;;;;;;;;;;;;;;;12.92;48.92;101042.91;4979325;27;116124;-64
2022/01/27 08:10:03;;;;;;;;;;;;;;;12.91;48.69;101047.50;4980129;28;118614;-63
2022/01/27 08:12:29;;;;;;;;;;;;;;;12.93;48.63;101044.53;4978775;28;118933;-64
2022/01/27 08:14:55;;;;;;;;;;;;;;;12.99;48.75;101027.22;4978633;27;119054;-62
2022/01/27 08:17:21;;;;;;;;;;;;;;;13.01;48.62;101028.59;5010852;27;127606;-63
2022/01/27 08:19:46;;;;;;;;;;;;;;;13.06;48.69;101019.66;4993186;27;130965;-64
2022/01/27 08:22:12;;;;;;;;;;;;;;;13.10;48.79;101003.69;4977754;28;121546;-56
2022/01/27 08:24:39;;;;;;;;;;;;;;;13.17;48.37;101004.25;4980451;28;97838;-55
2022/01/27 08:27:07;;;;;;;;;;;;;;;13.17;48.56;101001.53;4977682;28;98976;-63
2022/01/27 08:29:40;;;;;;;;;;;;;;;13.21;48.62;101000.72;4980372;28;99201;-62
2022/01/27 08:32:10;;;;;;;;;;;;;;;13.22;48.50;101009.66;4984616;27;98145;-56
2022/01/27 08:34:37;;;;;;;;;;;;;;;13.23;48.49;100981.50;4980212;27;97970;-56
2022/01/27 08:37:10;;;;;;;;;;;;;;;13.24;48.78;100983.97;4982655;27;98464;-64
2022/01/27 08:39:36;;;;;;;;;;;;;;;13.26;48.61;100981.78;4983283;27;98536;-63
2022/01/27 08:42:02;;;;;;;;;;;;;;;13.34;48.56;100980.41;4981127;28;107579;-56
2022/01/27 08:44:28;;;;;;;;;;;;;;;13.38;48.51;100978.78;4983073;27;104250;-63
2022/01/27 08:46:54;;;;;;;;;;;;;;;13.45;48.48;100981.22;4981866;27;128616;-56
2022/01/27 08:49:23;;;;;;;;;;;;;;;13.47;48.33;100981.75;4982389;28;98738;-63
2022/01/27 08:51:49;;;;;;;;;;;;;;;13.51;48.30;100994.47;4983501;27;98805;-63
2022/01/27 08:54:15;;;;;;;;;;;;;;;13.51;48.27;100996.34;4982155;28;116928;-63
2022/01/27 08:56:42;;;;;;;;;;;;;;;13.50;48.31;100994.75;4981475;27;127426;-63
2022/01/27 08:59:08;;;;;;;;;;;;;;;13.46;48.49;101004.50;4981954;28;127989;-64
2022/01/27 09:01:34;;;;;;;;;;;;;;;13.44;48.66;100974.16;4982278;27;98642;-63
2022/01/27 09:04:00;;;;;;;;;;;;;;;13.42;48.80;100968.22;4982873;27;98212;-63
2022/01/27 09:06:28;;;;;;;;;;;;;;;13.40;48.66;100965.81;4982735;27;119898;-64
2022/01/27 09:08:55;;;;;;;;;;;;;;;13.38;48.77;100962.53;4982703;27;98416;-63
2022/01/27 09:11:21;;;;;;;;;;;;;;;13.40;48.53;100962.25;4982112;27;98622;-63
2022/01/27 09:13:47;;;;;;;;;;;;;;;13.40;48.55;100956.84;4983271;27;104491;-64
2022/01/27 09:16:13;;;;;;;;;;;;;;;13.38;48.89;100953.63;4982167;27;99517;-63
2022/01/27 09:18:39;;;;;;;;;;;;;;;13.41;48.80;100958.47;4983375;27;98921;-63
2022/01/27 09:21:10;;;;;;;;;;;;;;;13.42;48.68;100960.09;4983198;27;97660;-63
2022/01/27 09:23:36;;;;;;;;;;;;;;;13.40;48.60;100952.25;4983700;27;98001;-63
2022/01/27 09:26:06;;;;;;;;;;;;;;;13.40;48.83;100979.34;4981122;27;128327;-63
2022/01/27 09:28:32;;;;;;;;;;;;;;;13.40;48.69;100983.91;4982242;27;101161;-63
2022/01/27 09:30:58;;;;;;;;;;;;;;;13.38;48.74;100972.56;4982947;27;98261;-63
2022/01/27 09:33:24;;;;;;;;;;;;;;;13.37;49.04;100966.34;4982915;28;97862;-64
2022/01/27 09:35:50;;;;;;;;;;;;;;;13.36;49.04;100959.31;4981080;28;129609;-63
2022/01/27 09:38:18;;;;;;;;;;;;;;;13.38;48.67;100956.31;4981594;28;119084;-64
2022/01/27 09:40:48;;;;;;;;;;;;;;;13.40;48.65;100949.56;4980880;27;99142;-63
2022/01/27 09:43:14;;;;;;;;;;;;;;;13.42;48.64;100944.66;4980911;28;97727;-63
2022/01/27 09:45:40;;;;;;;;;;;;;;;13.53;48.47;100958.19;4980636;27;129304;-63
2022/01/27 09:48:15;;;;;;;;;;;;;;;13.58;48.35;100955.47;4983202;28;98469;-62
2022/01/27 09:53:08;;;;;;;;;;;;;;;13.55;48.63;100948.69;4977910;28;98059;-63
2022/01/27 09:55:34;;;;;;;;;;;;;;;13.51;48.81;100944.91;4982834;27;99235;-64
2022/01/27 09:58:01;;;;;;;;;;;;;;;13.48;48.67;100926.53;4981406;27;127959;-63
2022/01/27 10:00:27;;;;;;;;;;;;;;;13.47;49.17;100919.47;4981681;27;98656;-63
2022/01/27 10:03:07;;;;;;;;;;;;;;;13.46;48.82;100923.25;4981933;28;114415;-64
2022/01/27 10:05:34;;;;;;;;;;;;;;;13.44;48.71;100920.00;4982118;27;98292;-63
2022/01/27 10:08:19;;;;;;;;;;;;;;;13.41;48.94;100923.28;4981949;27;98698;-63
2022/01/27 10:10:50;;;;;;;;;;;;;;;13.39;48.99;100931.66;4981344;27;97953;-62
2022/01/27 10:13:33;;;;;;;;;;;;;;;13.35;48.81;100913.53;4982377;27;97957;-63
2022/01/27 10:15:59;;;;;;;;;;;;;;;13.33;48.80;100927.38;4982087;27;98112;-63
2022/01/27 10:18:27;;;;;;;;;;;;;;;13.30;48.84;100921.69;4962877;28;98163;-64
2022/01/27 10:20:59;;;;;;;;;;;;;;;13.28;48.67;100924.66;4980817;28;97959;-63
2022/01/27 10:23:28;;;;;;;;;;;;;;;13.27;49.15;100923.84;4982643;28;109538;-64
2022/01/27 10:25:59;;;;;;;;;;;;;;;13.27;48.95;100926.53;4980850;28;99240;-63
2022/01/27 10:31:21;;;;;;;;;;;;;;;13.27;48.73;100917.63;4980206;27;98081;-64
2022/01/27 10:34:01;;;;;;;;;;;;;;;13.27;48.92;100914.91;4981603;28;97854;-63
2022/01/27 10:36:40;;;;;;;;;;;;;;;13.27;48.99;100907.59;4980515;27;98153;-63
2022/01/27 10:39:17;;;;;;;;;;;;;;;13.27;48.73;100913.00;4981243;27;98217;-63
2022/01/27 10:42:00;;;;;;;;;;;;;;;13.27;48.96;100913.00;4960954;28;117660;-63
2022/01/27 10:44:44;;;;;;;;;;;;;;;13.31;48.67;100905.16;4965301;28;98036;-63
2022/01/27 10:47:16;;;;;;;;;;;;;;;13.33;48.73;100900.28;4981832;28;98681;-64
2022/01/27 10:49:48;;;;;;;;;;;;;;;13.34;48.64;100899.19;4981350;28;98273;-63
2022/01/27 10:52:33;;;;;;;;;;;;;;;13.31;48.59;100898.94;4981471;28;97742;-63
2022/01/27 10:55:10;;;;;;;;;;;;;;;13.34;48.80;100892.97;4981816;28;98037;-64
2022/01/27 10:57:35;;;;;;;;;;;;;;;13.34;48.77;100893.78;4981567;27;97893;-63
2022/01/27 11:00:18;;;;;;;;;;;;;;;13.35;48.58;100884.56;4981439;27;108211;-63
2022/01/27 11:02:58;;;;;;;;;;;;;;;13.35;48.56;100878.34;4978304;28;116243;-63
2022/01/27 11:05:29;;;;;;;;;;;;;;;13.35;48.69;100871.03;4981966;27;97903;-63
2022/01/27 11:07:55;;;;;;;;;;;;;;;13.36;48.61;100859.13;4979785;27;100346;-63
2022/01/27 11:10:21;;;;;;;;;;;;;;;13.37;48.48;100865.34;4979928;27;98149;-63
2022/01/27 11:12:49;;;;;;;;;;;;;;;13.37;48.69;100855.34;4980899;28;97792;-63
2022/01/27 11:15:16;;;;;;;;;;;;;;;13.38;48.65;100862.34;4980818;27;99292;-62
2022/01/27 11:17:44;;;;;;;;;;;;;;;13.42;48.36;100855.31;4980719;27;99209;-63
2022/01/27 11:22:59;;;;;;;;;;;;;;;13.54;48.25;100849.56;4977606;27;98025;-64
2022/01/27 11:27:58;;;;;;;;;;;;;;;13.61;48.42;100843.84;4957844;28;98277;-63
2022/01/27 11:30:54;;;;;;;;;;;;;;;13.62;48.10;100849.00;4979208;28;98485;-63
2022/01/27 11:33:29;;;;;;;;;;;;;;;13.66;48.16;100831.09;4978880;28;98276;-56
2022/01/27 11:36:14;;;;;;;;;;;;;;;13.73;48.25;100828.88;4979076;28;98051;-64
2022/01/27 11:38:42;;;;;;;;;;;;;;;13.75;48.33;100829.44;4979971;27;98440;-64
2022/01/27 11:41:36;;;;;;;;;;;;;;;13.78;48.29;100830.75;4980569;27;98931;-64
2022/01/27 11:44:22;;;;;;;;;;;;;;;13.76;48.10;100822.09;4979041;28;98099;-57
2022/01/27 11:47:10;;;;;;;;;;;;;;;13.82;48.18;100831.81;4981194;28;99350;-55
2022/01/27 11:49:59;;;;;;;;;;;;;;;13.87;48.14;100825.56;4980464;27;98932;-64
2022/01/27 11:52:30;;;;;;;;;;;;;;;13.84;47.98;100826.13;4980535;27;98669;-56
2022/01/27 11:54:57;;;;;;;;;;;;;;;13.81;48.13;100826.69;4980106;27;98626;-64
2022/01/27 11:57:41;;;;;;;;;;;;;;;13.80;48.40;100827.78;4981795;27;97870;-56
2022/01/27 12:00:17;;;;;;;;;;;;;;;13.77;48.45;100831.03;4980383;28;98692;-56
2022/01/27 12:03:03;;;;;;;;;;;;;;;13.76;48.54;100824.81;4980383;27;98435;-63
2022/01/27 12:05:33;;;;;;;;;;;;;;;13.76;48.21;100819.41;4979904;28;98446;-63
2022/01/27 12:08:15;;;;;;;;;;;;;;;13.74;48.60;100821.56;4980369;28;112317;-56
2022/01/27 12:10:48;;;;;;;;;;;;;;;13.71;48.48;100817.50;4982305;27;98909;-63
2022/01/27 12:13:36;;;;;;;;;;;;;;;13.70;48.31;100815.09;4984252;27;98414;-64
2022/01/27 12:19:03;;;;;;;;;;;;;;;13.67;48.64;100796.69;4981828;27;97699;-56
2022/01/27 12:21:35;;;;;;;;;;;;;;;13.68;48.39;100791.00;4983866;27;99608;-56
2022/01/27 12:24:23;;;;;;;;;;;;;;;13.68;48.79;100801.84;4983579;27;98776;-56
2022/01/27 12:26:56;;;;;;;;;;;;;;;13.68;48.76;100792.91;4983071;27;98413;-56
2022/01/27 12:29:26;;;;;;;;;;;;;;;13.68;48.49;100792.91;4983646;27;97821;-56
2022/01/27 12:31:53;;;;;;;;;;;;;;;13.69;48.67;100791.81;4983660;28;99283;-64
2022/01/27 12:34:19;;;;;;;;;;;;;;;13.70;48.62;100791.50;4983373;27;98652;-56
2022/01/27 12:37:08;;;;;;;;;;;;;;;13.69;48.57;100787.19;4983417;28;98468;-63
2022/01/27 12:39:39;;;;;;;;;;;;;;;13.73;48.63;100785.53;4983683;27;98382;-56
2022/01/27 12:42:07;;;;;;;;;;;;;;;13.75;48.64;100766.28;4982818;27;117992;-64
2022/01/27 12:44:33;;;;;;;;;;;;;;;13.75;48.47;100771.69;4983824;27;98832;-56
2022/01/27 12:47:02;;;;;;;;;;;;;;;13.72;48.54;100764.97;4983359;27;98684;-56
2022/01/27 12:49:41;;;;;;;;;;;;;;;13.71;48.84;100763.31;4965262;28;97931;-57
2022/01/27 12:52:12;;;;;;;;;;;;;;;13.69;48.88;100767.44;4983436;27;99625;-64
2022/01/27 12:54:38;;;;;;;;;;;;;;;13.68;48.76;100761.19;4983509;27;98992;-64
2022/01/27 12:57:05;;;;;;;;;;;;;;;13.67;49.07;100756.84;4983516;28;97870;-55
2022/01/27 12:59:36;;;;;;;;;;;;;;;13.67;48.92;100751.44;4983272;27;98142;-64
2022/01/27 13:02:04;;;;;;;;;;;;;;;13.68;48.76;100746.84;4982229;28;117260;-56
2022/01/27 13:04:30;;;;;;;;;;;;;;;13.69;48.96;100741.16;4982833;27;99253;-55
2022/01/27 13:06:57;;;;;;;;;;;;;;;13.68;48.93;100750.38;4982337;28;115079;-63
2022/01/27 13:09:23;;;;;;;;;;;;;;;13.66;48.96;100744.41;4984513;27;98200;-56
2022/01/27 13:11:52;;;;;;;;;;;;;;;13.65;49.14;100742.00;4981116;28;98111;-56
2022/01/27 13:14:21;;;;;;;;;;;;;;;13.63;48.70;100738.75;4982657;27;98764;-57
2022/01/27 13:16:52;;;;;;;;;;;;;;;13.59;49.15;100743.91;4982170;27;97693;-63
2022/01/27 13:19:28;;;;;;;;;;;;;;;13.55;49.29;100736.63;4983073;27;97977;-56
2022/01/27 13:22:07;;;;;;;;;;;;;;;13.51;49.13;100730.97;4960735;28;98269;-56
2022/01/27 13:24:36;;;;;;;;;;;;;;;13.49;49.21;100716.91;4964217;28;98778;-63
2022/01/27 13:27:09;;;;;;;;;;;;;;;13.46;49.08;100731.81;4980994;27;98771;-55
2022/01/27 13:29:43;;;;;;;;;;;;;;;13.43;49.07;100729.66;4982463;27;97941;-63